sensor_id;sensor_type;location;lat;lon;timestamp;P1;durP1;ratioP1;P2;durP2;ratioP2
75437;SDS011;64015;49.392;15.582;2024-02-04T00:00:13;3.63;;;2.10;;
75437;SDS011;64015;49.392;15.582;2024-02-04T00:03:28;3.35;;;1.63;;
75437;SDS011;64015;49.392;15.582;2024-02-04T00:05:54;4.03;;;2.25;;
75437;SDS011;64015;49.392;15.582;2024-02-04T00:08:21;4.15;;;2.05;;
75437;SDS011;64015;49.392;15.582;2024-02-04T00:10:50;3.20;;;1.77;;
75437;SDS011;64015;49.392;15.582;2024-02-04T00:13:17;4.20;;;2.15;;
75437;SDS011;64015;49.392;15.582;2024-02-04T00:15:42;5.28;;;2.72;;
75437;SDS011;64015;49.392;15.582;2024-02-04T00:18:12;3.20;;;1.73;;
75437;SDS011;64015;49.392;15.582;2024-02-04T00:20:47;2.80;;;1.60;;
75437;SDS011;64015;49.392;15.582;2024-02-04T00:23:27;3.03;;;1.80;;
75437;SDS011;64015;49.392;15.582;2024-02-04T00:26:22;3.45;;;1.60;;
75437;SDS011;64015;49.392;15.582;2024-02-04T01:01:48;3.00;;;1.67;;
75437;SDS011;64015;49.392;15.582;2024-02-04T01:07:27;3.70;;;1.70;;
75437;SDS011;64015;49.392;15.582;2024-02-04T01:09:52;3.55;;;2.05;;
75437;SDS011;64015;49.392;15.582;2024-02-04T01:12:24;3.78;;;2.08;;
75437;SDS011;64015;49.392;15.582;2024-02-04T01:14:50;4.13;;;1.88;;
75437;SDS011;64015;49.392;15.582;2024-02-04T01:17:15;3.50;;;1.83;;
75437;SDS011;64015;49.392;15.582;2024-02-04T01:19:41;4.47;;;2.50;;
75437;SDS011;64015;49.392;15.582;2024-02-04T01:22:07;3.80;;;2.28;;
75437;SDS011;64015;49.392;15.582;2024-02-04T01:24:32;4.05;;;1.80;;
75437;SDS011;64015;49.392;15.582;2024-02-04T01:26:58;4.60;;;2.13;;
75437;SDS011;64015;49.392;15.582;2024-02-04T01:29:24;3.45;;;1.70;;
75437;SDS011;64015;49.392;15.582;2024-02-04T01:31:52;3.25;;;1.55;;
75437;SDS011;64015;49.392;15.582;2024-02-04T01:34:18;3.35;;;1.85;;
75437;SDS011;64015;49.392;15.582;2024-02-04T01:36:44;3.97;;;2.00;;
75437;SDS011;64015;49.392;15.582;2024-02-04T01:39:13;3.58;;;2.10;;
75437;SDS011;64015;49.392;15.582;2024-02-04T01:41:42;3.65;;;1.63;;
75437;SDS011;64015;49.392;15.582;2024-02-04T01:44:24;3.15;;;1.80;;
75437;SDS011;64015;49.392;15.582;2024-02-04T01:46:49;2.85;;;1.50;;
75437;SDS011;64015;49.392;15.582;2024-02-04T01:49:15;3.38;;;1.60;;
75437;SDS011;64015;49.392;15.582;2024-02-04T01:51:41;4.43;;;1.50;;
75437;SDS011;64015;49.392;15.582;2024-02-04T01:54:30;2.70;;;1.40;;
75437;SDS011;64015;49.392;15.582;2024-02-04T01:57:00;3.13;;;1.48;;
75437;SDS011;64015;49.392;15.582;2024-02-04T01:59:28;3.45;;;1.70;;
75437;SDS011;64015;49.392;15.582;2024-02-04T02:01:57;4.63;;;1.45;;
75437;SDS011;64015;49.392;15.582;2024-02-04T02:04:28;2.58;;;1.60;;
75437;SDS011;64015;49.392;15.582;2024-02-04T02:06:54;4.28;;;1.67;;
75437;SDS011;64015;49.392;15.582;2024-02-04T02:09:20;3.28;;;1.50;;
75437;SDS011;64015;49.392;15.582;2024-02-04T02:11:47;2.83;;;1.50;;
75437;SDS011;64015;49.392;15.582;2024-02-04T02:14:30;4.32;;;1.85;;
75437;SDS011;64015;49.392;15.582;2024-02-04T02:17:02;3.33;;;1.63;;
75437;SDS011;64015;49.392;15.582;2024-02-04T02:19:46;3.50;;;1.70;;
75437;SDS011;64015;49.392;15.582;2024-02-04T02:22:20;4.40;;;1.52;;
75437;SDS011;64015;49.392;15.582;2024-02-04T02:25:03;3.67;;;1.70;;
75437;SDS011;64015;49.392;15.582;2024-02-04T02:28:15;2.95;;;1.30;;
75437;SDS011;64015;49.392;15.582;2024-02-04T02:30:25;2.95;;;1.50;;
75437;SDS011;64015;49.392;15.582;2024-02-04T02:32:51;3.55;;;1.75;;
75437;SDS011;64015;49.392;15.582;2024-02-04T02:35:20;4.03;;;1.40;;
75437;SDS011;64015;49.392;15.582;2024-02-04T02:37:47;3.35;;;1.52;;
75437;SDS011;64015;49.392;15.582;2024-02-04T02:40:23;2.33;;;1.20;;
75437;SDS011;64015;49.392;15.582;2024-02-04T02:42:58;3.47;;;1.90;;
75437;SDS011;64015;49.392;15.582;2024-02-04T02:45:41;2.50;;;1.35;;
75437;SDS011;64015;49.392;15.582;2024-02-04T02:48:08;3.03;;;1.58;;
75437;SDS011;64015;49.392;15.582;2024-02-04T02:53:01;3.15;;;1.50;;
75437;SDS011;64015;49.392;15.582;2024-02-04T02:55:27;2.60;;;1.33;;
75437;SDS011;64015;49.392;15.582;2024-02-04T02:57:53;4.03;;;1.42;;
75437;SDS011;64015;49.392;15.582;2024-02-04T03:00:25;3.00;;;1.40;;
75437;SDS011;64015;49.392;15.582;2024-02-04T03:03:04;2.35;;;1.27;;
75437;SDS011;64015;49.392;15.582;2024-02-04T03:05:31;3.70;;;1.35;;
75437;SDS011;64015;49.392;15.582;2024-02-04T03:08:02;4.50;;;1.63;;
75437;SDS011;64015;49.392;15.582;2024-02-04T03:10:39;3.22;;;1.70;;
75437;SDS011;64015;49.392;15.582;2024-02-04T03:13:05;3.33;;;1.67;;
75437;SDS011;64015;49.392;15.582;2024-02-04T03:18:41;2.58;;;1.23;;
75437;SDS011;64015;49.392;15.582;2024-02-04T03:21:20;4.05;;;1.88;;
75437;SDS011;64015;49.392;15.582;2024-02-04T03:23:54;2.05;;;1.35;;
75437;SDS011;64015;49.392;15.582;2024-02-04T03:26:22;2.67;;;1.70;;
75437;SDS011;64015;49.392;15.582;2024-02-04T03:29:00;3.00;;;1.23;;
75437;SDS011;64015;49.392;15.582;2024-02-04T03:31:30;2.53;;;1.25;;
75437;SDS011;64015;49.392;15.582;2024-02-04T03:33:56;2.47;;;1.05;;
75437;SDS011;64015;49.392;15.582;2024-02-04T03:36:27;4.40;;;1.30;;
75437;SDS011;64015;49.392;15.582;2024-02-04T03:39:28;1.98;;;1.10;;
75437;SDS011;64015;49.392;15.582;2024-02-04T03:41:54;1.70;;;1.00;;
75437;SDS011;64015;49.392;15.582;2024-02-04T03:44:21;2.05;;;1.00;;
75437;SDS011;64015;49.392;15.582;2024-02-04T03:47:07;2.08;;;0.80;;
75437;SDS011;64015;49.392;15.582;2024-02-04T03:49:42;1.70;;;0.80;;
75437;SDS011;64015;49.392;15.582;2024-02-04T03:52:08;1.83;;;0.80;;
75437;SDS011;64015;49.392;15.582;2024-02-04T03:54:33;1.30;;;0.60;;
75437;SDS011;64015;49.392;15.582;2024-02-04T03:57:02;1.92;;;0.80;;
75437;SDS011;64015;49.392;15.582;2024-02-04T04:02:34;1.83;;;0.95;;
75437;SDS011;64015;49.392;15.582;2024-02-04T04:05:00;1.65;;;0.70;;
75437;SDS011;64015;49.392;15.582;2024-02-04T04:11:26;2.05;;;1.00;;
75437;SDS011;64015;49.392;15.582;2024-02-04T04:14:06;2.08;;;0.80;;
75437;SDS011;64015;49.392;15.582;2024-02-04T04:16:39;2.35;;;0.88;;
75437;SDS011;64015;49.392;15.582;2024-02-04T04:29:33;1.80;;;0.80;;
75437;SDS011;64015;49.392;15.582;2024-02-04T04:32:19;1.90;;;0.80;;
75437;SDS011;64015;49.392;15.582;2024-02-04T04:35:51;1.90;;;0.52;;
75437;SDS011;64015;49.392;15.582;2024-02-04T04:43:21;3.22;;;1.10;;
75437;SDS011;64015;49.392;15.582;2024-02-04T04:45:48;1.83;;;0.75;;
75437;SDS011;64015;49.392;15.582;2024-02-04T04:48:14;1.55;;;0.82;;
75437;SDS011;64015;49.392;15.582;2024-02-04T04:50:40;2.20;;;1.00;;
75437;SDS011;64015;49.392;15.582;2024-02-04T04:53:06;1.80;;;0.85;;
75437;SDS011;64015;49.392;15.582;2024-02-04T04:55:32;2.20;;;1.05;;
75437;SDS011;64015;49.392;15.582;2024-02-04T04:58:06;1.88;;;0.90;;
75437;SDS011;64015;49.392;15.582;2024-02-04T05:00:37;1.90;;;1.02;;
75437;SDS011;64015;49.392;15.582;2024-02-04T05:03:13;2.38;;;1.10;;
75437;SDS011;64015;49.392;15.582;2024-02-04T05:05:39;2.22;;;1.10;;
75437;SDS011;64015;49.392;15.582;2024-02-04T05:08:04;2.00;;;1.17;;
75437;SDS011;64015;49.392;15.582;2024-02-04T05:10:31;3.17;;;1.30;;
75437;SDS011;64015;49.392;15.582;2024-02-04T05:12:56;2.13;;;1.20;;
75437;SDS011;64015;49.392;15.582;2024-02-04T05:15:22;2.88;;;1.00;;
75437;SDS011;64015;49.392;15.582;2024-02-04T05:17:48;2.03;;;0.98;;
75437;SDS011;64015;49.392;15.582;2024-02-04T05:20:14;2.03;;;0.90;;
75437;SDS011;64015;49.392;15.582;2024-02-04T05:22:40;2.58;;;1.33;;
75437;SDS011;64015;49.392;15.582;2024-02-04T05:25:09;1.85;;;0.90;;
75437;SDS011;64015;49.392;15.582;2024-02-04T05:27:35;2.72;;;1.40;;
75437;SDS011;64015;49.392;15.582;2024-02-04T05:30:02;2.15;;;1.02;;
75437;SDS011;64015;49.392;15.582;2024-02-04T05:32:28;1.65;;;1.05;;
75437;SDS011;64015;49.392;15.582;2024-02-04T05:34:54;2.05;;;1.00;;
75437;SDS011;64015;49.392;15.582;2024-02-04T05:37:20;1.98;;;0.82;;
75437;SDS011;64015;49.392;15.582;2024-02-04T05:40:04;1.90;;;0.75;;
75437;SDS011;64015;49.392;15.582;2024-02-04T05:42:30;1.70;;;0.90;;
75437;SDS011;64015;49.392;15.582;2024-02-04T05:45:06;1.90;;;0.75;;
75437;SDS011;64015;49.392;15.582;2024-02-04T05:47:32;1.65;;;0.80;;
75437;SDS011;64015;49.392;15.582;2024-02-04T05:49:58;1.70;;;0.75;;
75437;SDS011;64015;49.392;15.582;2024-02-04T05:52:33;1.83;;;1.00;;
75437;SDS011;64015;49.392;15.582;2024-02-04T05:54:59;1.77;;;0.75;;
75437;SDS011;64015;49.392;15.582;2024-02-04T05:57:27;1.63;;;0.85;;
75437;SDS011;64015;49.392;15.582;2024-02-04T05:59:53;2.42;;;0.80;;
75437;SDS011;64015;49.392;15.582;2024-02-04T06:02:20;2.00;;;0.85;;
75437;SDS011;64015;49.392;15.582;2024-02-04T06:04:46;2.78;;;0.73;;
75437;SDS011;64015;49.392;15.582;2024-02-04T06:07:19;1.42;;;0.60;;
75437;SDS011;64015;49.392;15.582;2024-02-04T06:09:54;2.58;;;0.90;;
75437;SDS011;64015;49.392;15.582;2024-02-04T06:12:28;2.70;;;1.00;;
75437;SDS011;64015;49.392;15.582;2024-02-04T06:14:55;1.38;;;0.65;;
75437;SDS011;64015;49.392;15.582;2024-02-04T06:17:20;1.38;;;0.55;;
75437;SDS011;64015;49.392;15.582;2024-02-04T06:19:49;1.40;;;0.60;;
75437;SDS011;64015;49.392;15.582;2024-02-04T06:22:14;1.63;;;0.80;;
75437;SDS011;64015;49.392;15.582;2024-02-04T06:24:43;2.92;;;1.27;;
75437;SDS011;64015;49.392;15.582;2024-02-04T06:27:15;1.70;;;0.77;;
75437;SDS011;64015;49.392;15.582;2024-02-04T06:29:44;1.92;;;0.57;;
75437;SDS011;64015;49.392;15.582;2024-02-04T06:32:09;1.35;;;0.60;;
75437;SDS011;64015;49.392;15.582;2024-02-04T06:34:36;1.40;;;0.63;;
75437;SDS011;64015;49.392;15.582;2024-02-04T06:37:08;2.33;;;0.80;;
75437;SDS011;64015;49.392;15.582;2024-02-04T06:39:37;1.40;;;0.50;;
75437;SDS011;64015;49.392;15.582;2024-02-04T06:42:03;1.70;;;0.75;;
75437;SDS011;64015;49.392;15.582;2024-02-04T06:44:29;1.50;;;0.60;;
75437;SDS011;64015;49.392;15.582;2024-02-04T06:46:55;1.80;;;0.82;;
75437;SDS011;64015;49.392;15.582;2024-02-04T06:49:21;1.38;;;0.60;;
75437;SDS011;64015;49.392;15.582;2024-02-04T06:51:49;1.85;;;0.73;;
75437;SDS011;64015;49.392;15.582;2024-02-04T06:54:16;1.58;;;0.70;;
75437;SDS011;64015;49.392;15.582;2024-02-04T06:56:42;1.88;;;0.57;;
75437;SDS011;64015;49.392;15.582;2024-02-04T06:59:08;2.08;;;0.80;;
75437;SDS011;64015;49.392;15.582;2024-02-04T07:01:34;1.65;;;0.70;;
75437;SDS011;64015;49.392;15.582;2024-02-04T07:04:10;1.30;;;0.57;;
75437;SDS011;64015;49.392;15.582;2024-02-04T07:06:36;1.80;;;0.70;;
75437;SDS011;64015;49.392;15.582;2024-02-04T07:09:02;1.98;;;1.08;;
75437;SDS011;64015;49.392;15.582;2024-02-04T07:11:28;2.05;;;0.70;;
75437;SDS011;64015;49.392;15.582;2024-02-04T07:13:53;2.05;;;0.60;;
75437;SDS011;64015;49.392;15.582;2024-02-04T07:16:24;1.73;;;0.65;;
75437;SDS011;64015;49.392;15.582;2024-02-04T07:18:50;1.60;;;0.70;;
75437;SDS011;64015;49.392;15.582;2024-02-04T07:24:18;1.75;;;0.80;;
75437;SDS011;64015;49.392;15.582;2024-02-04T07:26:45;1.40;;;0.63;;
75437;SDS011;64015;49.392;15.582;2024-02-04T07:29:12;2.10;;;0.52;;
75437;SDS011;64015;49.392;15.582;2024-02-04T07:31:38;1.40;;;0.57;;
75437;SDS011;64015;49.392;15.582;2024-02-04T07:34:10;1.08;;;0.43;;
75437;SDS011;64015;49.392;15.582;2024-02-04T07:36:35;0.90;;;0.35;;
75437;SDS011;64015;49.392;15.582;2024-02-04T07:39:01;3.20;;;0.80;;
75437;SDS011;64015;49.392;15.582;2024-02-04T07:41:33;1.73;;;0.52;;
75437;SDS011;64015;49.392;15.582;2024-02-04T07:44:03;1.27;;;0.40;;
75437;SDS011;64015;49.392;15.582;2024-02-04T07:46:29;1.05;;;0.40;;
75437;SDS011;64015;49.392;15.582;2024-02-04T07:48:55;1.08;;;0.40;;
75437;SDS011;64015;49.392;15.582;2024-02-04T07:51:21;1.23;;;0.50;;
75437;SDS011;64015;49.392;15.582;2024-02-04T07:53:50;2.00;;;0.57;;
75437;SDS011;64015;49.392;15.582;2024-02-04T07:56:16;1.23;;;0.40;;
75437;SDS011;64015;49.392;15.582;2024-02-04T07:58:41;0.77;;;0.30;;
75437;SDS011;64015;49.392;15.582;2024-02-04T08:01:07;1.92;;;0.63;;
75437;SDS011;64015;49.392;15.582;2024-02-04T08:03:33;1.17;;;0.60;;
75437;SDS011;64015;49.392;15.582;2024-02-04T08:05:59;1.45;;;0.70;;
75437;SDS011;64015;49.392;15.582;2024-02-04T08:08:32;0.73;;;0.30;;
75437;SDS011;64015;49.392;15.582;2024-02-04T08:10:58;1.50;;;0.45;;
75437;SDS011;64015;49.392;15.582;2024-02-04T08:13:24;1.25;;;0.50;;
75437;SDS011;64015;49.392;15.582;2024-02-04T08:15:52;0.68;;;0.28;;
75437;SDS011;64015;49.392;15.582;2024-02-04T08:18:32;1.35;;;0.50;;
75437;SDS011;64015;49.392;15.582;2024-02-04T08:21:00;0.82;;;0.30;;
75437;SDS011;64015;49.392;15.582;2024-02-04T08:23:35;1.55;;;0.43;;
75437;SDS011;64015;49.392;15.582;2024-02-04T08:26:09;0.98;;;0.40;;
75437;SDS011;64015;49.392;15.582;2024-02-04T08:28:35;1.20;;;0.40;;
75437;SDS011;64015;49.392;15.582;2024-02-04T08:31:00;1.40;;;0.52;;
75437;SDS011;64015;49.392;15.582;2024-02-04T08:33:28;2.25;;;0.70;;
75437;SDS011;64015;49.392;15.582;2024-02-04T08:35:54;1.02;;;0.55;;
75437;SDS011;64015;49.392;15.582;2024-02-04T08:38:20;1.08;;;0.32;;
75437;SDS011;64015;49.392;15.582;2024-02-04T08:40:54;1.17;;;0.88;;
75437;SDS011;64015;49.392;15.582;2024-02-04T08:43:26;1.50;;;0.45;;
75437;SDS011;64015;49.392;15.582;2024-02-04T08:45:52;2.00;;;0.38;;
75437;SDS011;64015;49.392;15.582;2024-02-04T08:48:38;1.35;;;0.55;;
75437;SDS011;64015;49.392;15.582;2024-02-04T08:51:04;1.35;;;0.40;;
75437;SDS011;64015;49.392;15.582;2024-02-04T08:53:38;1.42;;;0.40;;
75437;SDS011;64015;49.392;15.582;2024-02-04T08:56:07;1.15;;;0.43;;
75437;SDS011;64015;49.392;15.582;2024-02-04T08:58:34;1.38;;;0.52;;
75437;SDS011;64015;49.392;15.582;2024-02-04T09:01:05;1.00;;;0.40;;
75437;SDS011;64015;49.392;15.582;2024-02-04T09:03:34;1.65;;;0.60;;
75437;SDS011;64015;49.392;15.582;2024-02-04T09:05:59;1.20;;;0.50;;
75437;SDS011;64015;49.392;15.582;2024-02-04T09:08:47;1.45;;;0.50;;
75437;SDS011;64015;49.392;15.582;2024-02-04T09:11:11;1.10;;;0.35;;
75437;SDS011;64015;49.392;15.582;2024-02-04T09:13:47;1.20;;;0.35;;
75437;SDS011;64015;49.392;15.582;2024-02-04T09:16:16;0.82;;;0.32;;
75437;SDS011;64015;49.392;15.582;2024-02-04T09:18:42;0.43;;;0.17;;
75437;SDS011;64015;49.392;15.582;2024-02-04T09:21:07;0.80;;;0.20;;
75437;SDS011;64015;49.392;15.582;2024-02-04T09:23:33;1.20;;;0.40;;
75437;SDS011;64015;49.392;15.582;2024-02-04T09:25:59;0.75;;;0.30;;
75437;SDS011;64015;49.392;15.582;2024-02-04T09:28:25;1.30;;;0.40;;
75437;SDS011;64015;49.392;15.582;2024-02-04T09:30:51;1.10;;;0.40;;
75437;SDS011;64015;49.392;15.582;2024-02-04T09:45:35;1.98;;;0.63;;
75437;SDS011;64015;49.392;15.582;2024-02-04T09:48:02;2.67;;;0.40;;
75437;SDS011;64015;49.392;15.582;2024-02-04T09:50:29;1.15;;;0.40;;
75437;SDS011;64015;49.392;15.582;2024-02-04T09:52:59;1.33;;;0.40;;
75437;SDS011;64015;49.392;15.582;2024-02-04T09:55:31;1.05;;;0.47;;
75437;SDS011;64015;49.392;15.582;2024-02-04T09:58:06;1.45;;;0.52;;
75437;SDS011;64015;49.392;15.582;2024-02-04T10:00:32;0.60;;;0.20;;
75437;SDS011;64015;49.392;15.582;2024-02-04T10:03:10;0.63;;;0.22;;
75437;SDS011;64015;49.392;15.582;2024-02-04T10:05:44;1.45;;;0.35;;
75437;SDS011;64015;49.392;15.582;2024-02-04T10:08:10;0.82;;;0.32;;
75437;SDS011;64015;49.392;15.582;2024-02-04T10:10:44;2.15;;;0.80;;
75437;SDS011;64015;49.392;15.582;2024-02-04T10:13:17;1.38;;;0.40;;
75437;SDS011;64015;49.392;15.582;2024-02-04T10:15:52;1.63;;;0.40;;
75437;SDS011;64015;49.392;15.582;2024-02-04T10:18:30;0.55;;;0.22;;
75437;SDS011;64015;49.392;15.582;2024-02-04T10:20:56;0.47;;;0.20;;
75437;SDS011;64015;49.392;15.582;2024-02-04T10:23:25;1.67;;;0.70;;
75437;SDS011;64015;49.392;15.582;2024-02-04T10:25:57;0.40;;;0.15;;
75437;SDS011;64015;49.392;15.582;2024-02-04T10:28:25;1.02;;;0.38;;
75437;SDS011;64015;49.392;15.582;2024-02-04T10:30:51;0.82;;;0.20;;
75437;SDS011;64015;49.392;15.582;2024-02-04T10:33:17;0.60;;;0.30;;
75437;SDS011;64015;49.392;15.582;2024-02-04T10:36:06;1.08;;;0.30;;
75437;SDS011;64015;49.392;15.582;2024-02-04T10:38:32;0.93;;;0.40;;
75437;SDS011;64015;49.392;15.582;2024-02-04T10:41:25;0.98;;;0.28;;
75437;SDS011;64015;49.392;15.582;2024-02-04T10:43:55;0.65;;;0.20;;
75437;SDS011;64015;49.392;15.582;2024-02-04T10:46:23;1.13;;;0.35;;
75437;SDS011;64015;49.392;15.582;2024-02-04T10:48:56;0.57;;;0.28;;
75437;SDS011;64015;49.392;15.582;2024-02-04T10:51:45;0.43;;;0.20;;
75437;SDS011;64015;49.392;15.582;2024-02-04T10:54:14;0.80;;;0.30;;
75437;SDS011;64015;49.392;15.582;2024-02-04T10:56:46;0.82;;;0.20;;
75437;SDS011;64015;49.392;15.582;2024-02-04T10:59:23;0.30;;;0.10;;
75437;SDS011;64015;49.392;15.582;2024-02-04T11:01:50;0.90;;;0.22;;
75437;SDS011;64015;49.392;15.582;2024-02-04T11:04:19;0.55;;;0.15;;
75437;SDS011;64015;49.392;15.582;2024-02-04T11:06:48;1.95;;;0.20;;
75437;SDS011;64015;49.392;15.582;2024-02-04T11:09:17;0.25;;;0.13;;
75437;SDS011;64015;49.392;15.582;2024-02-04T11:11:50;0.95;;;0.25;;
75437;SDS011;64015;49.392;15.582;2024-02-04T11:14:22;2.05;;;0.17;;
75437;SDS011;64015;49.392;15.582;2024-02-04T11:29:44;1.23;;;0.45;;
75437;SDS011;64015;49.392;15.582;2024-02-04T11:32:10;2.08;;;0.30;;
75437;SDS011;64015;49.392;15.582;2024-02-04T11:37:55;0.73;;;0.20;;
75437;SDS011;64015;49.392;15.582;2024-02-04T11:40:33;0.98;;;0.20;;
75437;SDS011;64015;49.392;15.582;2024-02-04T11:43:59;0.50;;;0.10;;
75437;SDS011;64015;49.392;15.582;2024-02-04T11:47:09;0.68;;;0.20;;
75437;SDS011;64015;49.392;15.582;2024-02-04T11:49:38;0.50;;;0.20;;
75437;SDS011;64015;49.392;15.582;2024-02-04T11:52:18;1.80;;;0.30;;
75437;SDS011;64015;49.392;15.582;2024-02-04T11:54:47;0.88;;;0.25;;
75437;SDS011;64015;49.392;15.582;2024-02-04T11:57:29;1.17;;;0.35;;
75437;SDS011;64015;49.392;15.582;2024-02-04T11:59:57;0.55;;;0.20;;
75437;SDS011;64015;49.392;15.582;2024-02-04T12:02:23;0.80;;;0.20;;
75437;SDS011;64015;49.392;15.582;2024-02-04T12:04:49;0.88;;;0.40;;
75437;SDS011;64015;49.392;15.582;2024-02-04T12:07:32;0.40;;;0.20;;
75437;SDS011;64015;49.392;15.582;2024-02-04T12:10:03;0.70;;;0.30;;
75437;SDS011;64015;49.392;15.582;2024-02-04T12:12:31;0.20;;;0.10;;
75437;SDS011;64015;49.392;15.582;2024-02-04T12:14:57;1.90;;;0.40;;
75437;SDS011;64015;49.392;15.582;2024-02-04T12:17:44;1.13;;;0.30;;
75437;SDS011;64015;49.392;15.582;2024-02-04T12:20:10;3.97;;;1.23;;
75437;SDS011;64015;49.392;15.582;2024-02-04T12:22:48;0.80;;;0.30;;
75437;SDS011;64015;49.392;15.582;2024-02-04T12:25:14;0.95;;;0.30;;
75437;SDS011;64015;49.392;15.582;2024-02-04T12:27:43;1.73;;;0.30;;
75437;SDS011;64015;49.392;15.582;2024-02-04T12:30:36;2.47;;;0.40;;
75437;SDS011;64015;49.392;15.582;2024-02-04T12:33:07;1.70;;;0.40;;
75437;SDS011;64015;49.392;15.582;2024-02-04T12:35:34;0.38;;;0.10;;
75437;SDS011;64015;49.392;15.582;2024-02-04T12:38:05;0.73;;;0.30;;
75437;SDS011;64015;49.392;15.582;2024-02-04T12:40:34;0.32;;;0.15;;
75437;SDS011;64015;49.392;15.582;2024-02-04T12:43:12;0.57;;;0.20;;
75437;SDS011;64015;49.392;15.582;2024-02-04T12:45:38;0.73;;;0.20;;
75437;SDS011;64015;49.392;15.582;2024-02-04T12:48:14;1.52;;;0.22;;
75437;SDS011;64015;49.392;15.582;2024-02-04T12:51:02;0.43;;;0.10;;
75437;SDS011;64015;49.392;15.582;2024-02-04T12:53:29;0.77;;;0.30;;
75437;SDS011;64015;49.392;15.582;2024-02-04T12:56:16;0.52;;;0.17;;
75437;SDS011;64015;49.392;15.582;2024-02-04T12:58:44;1.20;;;0.30;;
75437;SDS011;64015;49.392;15.582;2024-02-04T13:01:21;2.05;;;0.70;;
75437;SDS011;64015;49.392;15.582;2024-02-04T13:04:12;1.33;;;0.20;;
75437;SDS011;64015;49.392;15.582;2024-02-04T13:06:43;1.02;;;0.22;;
75437;SDS011;64015;49.392;15.582;2024-02-04T13:09:13;1.35;;;0.43;;
75437;SDS011;64015;49.392;15.582;2024-02-04T13:12:05;0.75;;;0.20;;
75437;SDS011;64015;49.392;15.582;2024-02-04T13:14:44;0.95;;;0.45;;
75437;SDS011;64015;49.392;15.582;2024-02-04T13:17:13;1.65;;;0.45;;
75437;SDS011;64015;49.392;15.582;2024-02-04T13:19:46;0.95;;;0.40;;
75437;SDS011;64015;49.392;15.582;2024-02-04T13:22:15;1.08;;;0.40;;
75437;SDS011;64015;49.392;15.582;2024-02-04T13:24:43;1.40;;;0.40;;
75437;SDS011;64015;49.392;15.582;2024-02-04T13:27:12;0.90;;;0.28;;
75437;SDS011;64015;49.392;15.582;2024-02-04T13:29:45;1.30;;;0.40;;
75437;SDS011;64015;49.392;15.582;2024-02-04T13:32:13;1.33;;;0.73;;
75437;SDS011;64015;49.392;15.582;2024-02-04T13:34:39;0.40;;;0.10;;
75437;SDS011;64015;49.392;15.582;2024-02-04T13:37:05;0.88;;;0.30;;
75437;SDS011;64015;49.392;15.582;2024-02-04T13:39:31;0.95;;;0.30;;
75437;SDS011;64015;49.392;15.582;2024-02-04T13:41:57;1.10;;;0.30;;
75437;SDS011;64015;49.392;15.582;2024-02-04T13:44:23;0.80;;;0.30;;
75437;SDS011;64015;49.392;15.582;2024-02-04T13:46:49;0.57;;;0.20;;
75437;SDS011;64015;49.392;15.582;2024-02-04T13:49:15;0.65;;;0.20;;
75437;SDS011;64015;49.392;15.582;2024-02-04T13:51:44;1.08;;;0.30;;
75437;SDS011;64015;49.392;15.582;2024-02-04T13:54:10;1.60;;;0.45;;
75437;SDS011;64015;49.392;15.582;2024-02-04T13:56:39;0.60;;;0.30;;
75437;SDS011;64015;49.392;15.582;2024-02-04T13:59:11;0.98;;;0.28;;
75437;SDS011;64015;49.392;15.582;2024-02-04T14:01:49;0.80;;;0.30;;
75437;SDS011;64015;49.392;15.582;2024-02-04T14:04:15;1.80;;;0.35;;
75437;SDS011;64015;49.392;15.582;2024-02-04T14:06:41;0.30;;;0.17;;
75437;SDS011;64015;49.392;15.582;2024-02-04T14:09:07;0.90;;;0.40;;
75437;SDS011;64015;49.392;15.582;2024-02-04T14:11:34;1.05;;;0.30;;
75437;SDS011;64015;49.392;15.582;2024-02-04T14:14:05;1.95;;;0.52;;
75437;SDS011;64015;49.392;15.582;2024-02-04T14:16:32;0.70;;;0.40;;
75437;SDS011;64015;49.392;15.582;2024-02-04T14:18:58;0.60;;;0.20;;
75437;SDS011;64015;49.392;15.582;2024-02-04T14:21:24;0.73;;;0.20;;
75437;SDS011;64015;49.392;15.582;2024-02-04T14:34:34;0.60;;;0.20;;
75437;SDS011;64015;49.392;15.582;2024-02-04T14:37:00;0.98;;;0.30;;
75437;SDS011;64015;49.392;15.582;2024-02-04T14:42:05;1.52;;;0.30;;
75437;SDS011;64015;49.392;15.582;2024-02-04T14:44:31;0.43;;;0.20;;
75437;SDS011;64015;49.392;15.582;2024-02-04T14:46:57;1.70;;;0.50;;
75437;SDS011;64015;49.392;15.582;2024-02-04T14:49:23;0.40;;;0.10;;
75437;SDS011;64015;49.392;15.582;2024-02-04T14:51:49;0.50;;;0.13;;
75437;SDS011;64015;49.392;15.582;2024-02-04T14:54:24;0.98;;;0.22;;
75437;SDS011;64015;49.392;15.582;2024-02-04T14:56:49;0.95;;;0.20;;
75437;SDS011;64015;49.392;15.582;2024-02-04T14:59:25;1.50;;;0.43;;
75437;SDS011;64015;49.392;15.582;2024-02-04T15:02:00;1.00;;;0.30;;
75437;SDS011;64015;49.392;15.582;2024-02-04T15:04:45;1.40;;;0.40;;
75437;SDS011;64015;49.392;15.582;2024-02-04T15:07:11;0.80;;;0.25;;
75437;SDS011;64015;49.392;15.582;2024-02-04T15:09:52;1.05;;;0.35;;
75437;SDS011;64015;49.392;15.582;2024-02-04T15:12:33;1.27;;;0.57;;
75437;SDS011;64015;49.392;15.582;2024-02-04T15:15:29;1.80;;;0.60;;
75437;SDS011;64015;49.392;15.582;2024-02-04T15:17:58;1.23;;;0.45;;
75437;SDS011;64015;49.392;15.582;2024-02-04T15:20:24;0.77;;;0.25;;
75437;SDS011;64015;49.392;15.582;2024-02-04T15:22:50;1.15;;;0.40;;
75437;SDS011;64015;49.392;15.582;2024-02-04T15:25:23;1.40;;;0.47;;
75437;SDS011;64015;49.392;15.582;2024-02-04T15:27:52;0.98;;;0.30;;
75437;SDS011;64015;49.392;15.582;2024-02-04T15:30:20;1.05;;;0.32;;
75437;SDS011;64015;49.392;15.582;2024-02-04T15:32:50;1.08;;;0.40;;
75437;SDS011;64015;49.392;15.582;2024-02-04T15:35:19;0.80;;;0.30;;
75437;SDS011;64015;49.392;15.582;2024-02-04T15:37:50;0.90;;;0.35;;
75437;SDS011;64015;49.392;15.582;2024-02-04T15:41:00;0.90;;;0.30;;
75437;SDS011;64015;49.392;15.582;2024-02-04T15:43:32;0.70;;;0.20;;
75437;SDS011;64015;49.392;15.582;2024-02-04T15:52:26;0.45;;;0.20;;
75437;SDS011;64015;49.392;15.582;2024-02-04T15:54:57;1.45;;;0.40;;
75437;SDS011;64015;49.392;15.582;2024-02-04T16:01:53;2.35;;;0.75;;
75437;SDS011;64015;49.392;15.582;2024-02-04T16:08:45;1.92;;;0.60;;
75437;SDS011;64015;49.392;15.582;2024-02-04T16:11:27;2.00;;;0.45;;
75437;SDS011;64015;49.392;15.582;2024-02-04T16:14:58;0.65;;;0.20;;
75437;SDS011;64015;49.392;15.582;2024-02-04T16:18:52;1.30;;;0.40;;
75437;SDS011;64015;49.392;15.582;2024-02-04T16:25:25;2.92;;;0.68;;
75437;SDS011;64015;49.392;15.582;2024-02-04T16:27:54;1.10;;;0.38;;
75437;SDS011;64015;49.392;15.582;2024-02-04T16:31:00;1.73;;;0.40;;
75437;SDS011;64015;49.392;15.582;2024-02-04T16:33:41;1.00;;;0.30;;
75437;SDS011;64015;49.392;15.582;2024-02-04T16:39:16;0.55;;;0.20;;
75437;SDS011;64015;49.392;15.582;2024-02-04T16:42:00;1.15;;;0.20;;
75437;SDS011;64015;49.392;15.582;2024-02-04T16:44:30;0.43;;;0.20;;
75437;SDS011;64015;49.392;15.582;2024-02-04T16:49:59;1.75;;;0.40;;
75437;SDS011;64015;49.392;15.582;2024-02-04T16:53:04;0.57;;;0.22;;
75437;SDS011;64015;49.392;15.582;2024-02-04T16:56:17;0.73;;;0.30;;
75437;SDS011;64015;49.392;15.582;2024-02-04T16:59:15;1.25;;;0.40;;
75437;SDS011;64015;49.392;15.582;2024-02-04T17:02:19;1.30;;;0.50;;
75437;SDS011;64015;49.392;15.582;2024-02-04T17:04:51;1.05;;;0.50;;
75437;SDS011;64015;49.392;15.582;2024-02-04T17:07:18;1.85;;;0.80;;
75437;SDS011;64015;49.392;15.582;2024-02-04T17:14:00;1.20;;;0.50;;
75437;SDS011;64015;49.392;15.582;2024-02-04T17:17:06;1.90;;;0.65;;
75437;SDS011;64015;49.392;15.582;2024-02-04T17:28:20;1.27;;;0.60;;